Time,TemperatureF,DewpointF,PressureIn,WindDirection,WindDirectionDegrees,WindSpeedMPH,WindSpeedGustMPH,Humidity,HourlyPrecipIn,Conditions,Clouds,dailyrainin,SoftwareType,DateUTC
2013-08-24 00:01:00,59.5,54.3,30.22,SE,138,0.0,0.0,83,0.00,,,0.00,Wunderground v.1.15,2013-08-24 04:01:00,
2013-08-24 00:02:00,59.4,54.6,30.22,SE,139,0.0,0.0,84,0.00,,,0.00,Wunderground v.1.15,2013-08-24 04:02:00,
2013-08-24 00:04:00,59.2,54.4,30.22,SE,138,0.0,0.0,84,0.00,,,0.00,Wunderground v.1.15,2013-08-24 04:04:00,
2013-08-24 00:09:00,59.0,54.2,30.22,SE,139,0.0,0.0,84,0.00,,,0.00,Wunderground v.1.15,2013-08-24 04:09:00,
2013-08-24 00:10:00,59.0,54.5,30.22,SE,139,0.0,0.0,85,0.00,,,0.00,Wunderground v.1.15,2013-08-24 04:10:00,
2013-08-24 00:16:00,58.5,54.0,30.22,SE,139,0.0,0.0,85,0.00,,,0.00,Wunderground v.1.15,2013-08-24 04:16:00,
2013-08-24 00:18:00,58.4,54.2,30.22,SE,138,0.0,0.0,86,0.00,,,0.00,Wunderground v.1.15,2013-08-24 04:18:00,
2013-08-24 00:23:00,58.1,53.9,30.22,SE,139,0.0,0.0,86,0.00,,,0.00,Wunderground v.1.15,2013-08-24 04:23:00,
2013-08-24 00:29:00,57.8,54.0,30.22,SE,138,0.0,0.0,87,0.00,,,0.00,Wunderground v.1.15,2013-08-24 04:29:00,
2013-08-24 00:34:00,57.5,53.7,30.22,SE,138,0.0,0.0,87,0.00,,,0.00,Wunderground v.1.15,2013-08-24 04:34:00,
2013-08-24 00:40:00,57.3,53.8,30.22,SE,139,0.0,0.0,88,0.00,,,0.00,Wunderground v.1.15,2013-08-24 04:40:00,
2013-08-24 00:46:00,57.2,54.0,30.22,SE,139,0.0,0.0,89,0.00,,,0.00,Wunderground v.1.15,2013-08-24 04:46:00,
2013-08-24 00:51:00,57.6,54.7,30.22,SE,139,0.0,0.0,90,0.00,,,0.00,Wunderground v.1.15,2013-08-24 04:51:00,
2013-08-24 00:57:00,57.8,54.6,30.22,SE,139,0.0,0.0,89,0.00,,,0.00,Wunderground v.1.15,2013-08-24 04:57:00,
2013-08-24 01:02:00,57.9,54.7,30.22,SE,139,0.0,0.0,89,0.00,,,0.00,Wunderground v.1.15,2013-08-24 05:02:00,
2013-08-24 01:07:00,57.8,54.6,30.22,SE,138,0.0,0.0,89,0.00,,,0.00,Wunderground v.1.15,2013-08-24 05:07:00,
2013-08-24 01:12:00,57.7,54.5,30.22,SE,139,0.0,0.0,89,0.00,,,0.00,Wunderground v.1.15,2013-08-24 05:12:00,
2013-08-24 01:18:00,57.6,54.4,30.22,SE,138,0.0,0.0,89,0.00,,,0.00,Wunderground v.1.15,2013-08-24 05:18:00,
2013-08-24 01:23:00,57.5,54.3,30.22,SE,139,0.0,1.0,89,0.00,,,0.00,Wunderground v.1.15,2013-08-24 05:23:00,
2013-08-24 01:29:00,57.3,54.1,30.22,SE,139,0.0,0.0,89,0.00,,,0.00,Wunderground v.1.15,2013-08-24 05:29:00,
2013-08-24 01:34:00,57.1,53.9,30.22,SE,139,0.0,0.0,89,0.00,,,0.00,Wunderground v.1.15,2013-08-24 05:34:00,
2013-08-24 01:40:00,57.0,54.1,30.23,SE,138,0.0,0.0,90,0.00,,,0.00,Wunderground v.1.15,2013-08-24 05:40:00,
2013-08-24 01:45:00,56.8,53.6,30.23,SE,139,0.0,0.0,89,0.00,,,0.00,Wunderground v.1.15,2013-08-24 05:45:00,
2013-08-24 01:51:00,56.6,53.4,30.23,SE,138,0.0,0.0,89,0.00,,,0.00,Wunderground v.1.15,2013-08-24 05:51:00,
2013-08-24 01:56:00,56.3,53.4,30.23,SE,139,0.0,0.0,90,0.00,,,0.00,Wunderground v.1.15,2013-08-24 05:56:00,
2013-08-24 02:01:00,56.1,53.2,30.23,SE,138,0.0,0.0,90,0.00,,,0.00,Wunderground v.1.15,2013-08-24 06:01:00,
2013-08-24 02:07:00,56.0,53.1,30.22,SE,139,0.0,0.0,90,0.00,,,0.00,Wunderground v.1.15,2013-08-24 06:07:00,
2013-08-24 02:12:00,55.8,53.2,30.22,SE,139,0.0,0.0,91,0.00,,,0.00,Wunderground v.1.15,2013-08-24 06:12:00,
2013-08-24 02:18:00,55.6,53.0,30.22,SE,139,0.0,0.0,91,0.00,,,0.00,Wunderground v.1.15,2013-08-24 06:18:00,
2013-08-24 02:23:00,55.4,52.8,30.23,SE,139,0.0,0.0,91,0.00,,,0.00,Wunderground v.1.15,2013-08-24 06:23:00,
2013-08-24 02:28:00,55.3,52.7,30.23,SE,138,0.0,0.0,91,0.00,,,0.00,Wunderground v.1.15,2013-08-24 06:28:00,
2013-08-24 02:33:00,55.1,52.5,30.23,SE,138,0.0,0.0,91,0.00,,,0.00,Wunderground v.1.15,2013-08-24 06:33:00,
2013-08-24 02:39:00,55.0,52.4,30.23,SE,139,0.0,0.0,91,0.00,,,0.00,Wunderground v.1.15,2013-08-24 06:39:00,
2013-08-24 02:45:00,54.8,52.5,30.23,SE,139,0.0,0.0,92,0.00,,,0.00,Wunderground v.1.15,2013-08-24 06:45:00,
2013-08-24 02:50:00,54.8,52.5,30.23,SE,139,0.0,0.0,92,0.00,,,0.00,Wunderground v.1.15,2013-08-24 06:50:00,
2013-08-24 02:56:00,54.8,52.5,30.23,SE,139,0.0,0.0,92,0.00,,,0.00,Wunderground v.1.15,2013-08-24 06:56:00,
2013-08-24 03:01:00,54.7,52.4,30.23,SE,139,0.0,0.0,92,0.00,,,0.00,Wunderground v.1.15,2013-08-24 07:01:00,
2013-08-24 03:07:00,54.7,52.4,30.23,SE,138,0.0,0.0,92,0.00,,,0.00,Wunderground v.1.15,2013-08-24 07:07:00,
2013-08-24 03:13:00,54.8,52.8,30.23,SE,139,0.0,0.0,93,0.00,,,0.00,Wunderground v.1.15,2013-08-24 07:13:00,
2013-08-24 03:18:00,55.0,53.0,30.23,SE,138,0.0,0.0,93,0.00,,,0.00,Wunderground v.1.15,2013-08-24 07:18:00,
2013-08-24 03:23:00,55.0,53.0,30.23,SE,139,0.0,0.0,93,0.00,,,0.00,Wunderground v.1.15,2013-08-24 07:23:00,
2013-08-24 03:29:00,54.9,52.9,30.23,SE,139,0.0,0.0,93,0.00,,,0.00,Wunderground v.1.15,2013-08-24 07:29:00,
2013-08-24 03:35:00,54.7,52.7,30.23,SE,138,0.0,0.0,93,0.00,,,0.00,Wunderground v.1.15,2013-08-24 07:35:00,
2013-08-24 03:40:00,54.6,52.6,30.24,SE,139,0.0,0.0,93,0.00,,,0.00,Wunderground v.1.15,2013-08-24 07:40:00,
2013-08-24 03:46:00,54.4,52.4,30.24,SE,139,0.0,0.0,93,0.00,,,0.00,Wunderground v.1.15,2013-08-24 07:46:00,
2013-08-24 03:51:00,54.4,52.4,30.24,SE,138,0.0,0.0,93,0.00,,,0.00,Wunderground v.1.15,2013-08-24 07:51:00,
2013-08-24 03:57:00,54.6,52.6,30.24,SE,139,0.0,0.0,93,0.00,,,0.00,Wunderground v.1.15,2013-08-24 07:57:00,
2013-08-24 04:02:00,54.6,52.6,30.24,SE,139,0.0,0.0,93,0.00,,,0.00,Wunderground v.1.15,2013-08-24 08:02:00,
2013-08-24 04:07:00,54.5,52.5,30.24,SE,138,0.0,0.0,93,0.00,,,0.00,Wunderground v.1.15,2013-08-24 08:07:00,
2013-08-24 04:13:00,54.4,52.4,30.24,SE,139,0.0,0.0,93,0.00,,,0.00,Wunderground v.1.15,2013-08-24 08:13:00,
2013-08-24 04:18:00,54.2,52.2,30.25,SE,139,0.0,0.0,93,0.00,,,0.00,Wunderground v.1.15,2013-08-24 08:18:00,
2013-08-24 04:24:00,54.1,52.1,30.25,SE,138,0.0,0.0,93,0.00,,,0.00,Wunderground v.1.15,2013-08-24 08:24:00,
2013-08-24 04:30:00,54.0,52.0,30.25,SE,139,0.0,0.0,93,0.00,,,0.00,Wunderground v.1.15,2013-08-24 08:30:00,
2013-08-24 04:36:00,53.9,51.9,30.24,SE,138,0.0,0.0,93,0.00,,,0.00,Wunderground v.1.15,2013-08-24 08:36:00,
2013-08-24 04:42:00,53.8,51.8,30.25,SE,139,0.0,0.0,93,0.00,,,0.00,Wunderground v.1.15,2013-08-24 08:42:00,
2013-08-24 04:48:00,53.7,51.7,30.25,SE,139,0.0,0.0,93,0.00,,,0.00,Wunderground v.1.15,2013-08-24 08:48:00,
2013-08-24 04:54:00,53.6,51.6,30.25,SE,138,0.0,0.0,93,0.00,,,0.00,Wunderground v.1.15,2013-08-24 08:54:00,
2013-08-24 04:59:00,53.4,51.4,30.25,SE,139,0.0,0.0,93,0.00,,,0.00,Wunderground v.1.15,2013-08-24 08:59:00,
2013-08-24 05:05:00,53.3,51.3,30.26,SE,138,0.0,0.0,93,0.00,,,0.00,Wunderground v.1.15,2013-08-24 09:05:00,
2013-08-24 05:10:00,53.2,51.2,30.26,SE,139,0.0,0.0,93,0.00,,,0.00,Wunderground v.1.15,2013-08-24 09:10:00,
2013-08-24 05:16:00,53.1,51.1,30.26,SE,139,0.0,0.0,93,0.00,,,0.00,Wunderground v.1.15,2013-08-24 09:16:00,
2013-08-24 05:21:00,53.0,51.3,30.26,SE,138,0.0,0.0,94,0.00,,,0.00,Wunderground v.1.15,2013-08-24 09:21:00,
2013-08-24 05:27:00,52.8,51.1,30.26,SE,139,0.0,0.0,94,0.00,,,0.00,Wunderground v.1.15,2013-08-24 09:27:00,
2013-08-24 05:33:00,52.6,50.9,30.26,SE,138,0.0,0.0,94,0.00,,,0.00,Wunderground v.1.15,2013-08-24 09:33:00,
2013-08-24 05:39:00,52.5,50.5,30.26,SE,139,0.0,0.0,93,0.00,,,0.00,Wunderground v.1.15,2013-08-24 09:39:00,
2013-08-24 05:44:00,52.4,50.7,30.27,SE,138,0.0,0.0,94,0.00,,,0.00,Wunderground v.1.15,2013-08-24 09:44:00,
2013-08-24 05:50:00,52.3,50.6,30.27,SE,138,0.0,0.0,94,0.00,,,0.00,Wunderground v.1.15,2013-08-24 09:50:00,
2013-08-24 05:56:00,52.1,50.4,30.27,SE,139,0.0,0.0,94,0.00,,,0.00,Wunderground v.1.15,2013-08-24 09:56:00,
2013-08-24 06:01:00,52.2,50.5,30.27,SE,139,0.0,0.0,94,0.00,,,0.00,Wunderground v.1.15,2013-08-24 10:01:00,
2013-08-24 06:07:00,52.5,51.1,30.27,SE,139,0.0,0.0,95,0.00,,,0.00,Wunderground v.1.15,2013-08-24 10:07:00,
2013-08-24 06:12:00,52.6,50.9,30.27,SE,139,0.0,0.0,94,0.00,,,0.00,Wunderground v.1.15,2013-08-24 10:12:00,
2013-08-24 06:18:00,52.5,50.8,30.27,SE,139,0.0,0.0,94,0.00,,,0.00,Wunderground v.1.15,2013-08-24 10:18:00,
2013-08-24 06:23:00,52.4,50.7,30.27,SE,139,0.0,0.0,94,0.00,,,0.00,Wunderground v.1.15,2013-08-24 10:23:00,
2013-08-24 06:29:00,52.3,50.6,30.28,SE,139,0.0,0.0,94,0.00,,,0.00,Wunderground v.1.15,2013-08-24 10:29:00,
2013-08-24 06:34:00,52.1,50.4,30.28,SE,138,0.0,0.0,94,0.00,,,0.00,Wunderground v.1.15,2013-08-24 10:34:00,
2013-08-24 06:40:00,52.0,50.3,30.28,SE,139,0.0,0.0,94,0.00,,,0.00,Wunderground v.1.15,2013-08-24 10:40:00,
2013-08-24 06:45:00,51.8,50.1,30.28,SE,139,0.0,0.0,94,0.00,,,0.00,Wunderground v.1.15,2013-08-24 10:45:00,
2013-08-24 06:50:00,51.7,50.0,30.29,SE,138,0.0,0.0,94,0.00,,,0.00,Wunderground v.1.15,2013-08-24 10:50:00,
2013-08-24 06:56:00,51.7,50.0,30.29,SE,139,0.0,0.0,94,0.00,,,0.00,Wunderground v.1.15,2013-08-24 10:56:00,
2013-08-24 07:01:00,51.5,49.8,30.29,SE,139,0.0,0.0,94,0.00,,,0.00,Wunderground v.1.15,2013-08-24 11:01:00,
2013-08-24 07:07:00,51.4,49.7,30.29,SE,139,0.0,0.0,94,0.00,,,0.00,Wunderground v.1.15,2013-08-24 11:07:00,
2013-08-24 07:13:00,51.3,49.6,30.29,SE,139,0.0,0.0,94,0.00,,,0.00,Wunderground v.1.15,2013-08-24 11:13:00,
2013-08-24 07:18:00,51.3,49.6,30.30,SE,138,0.0,0.0,94,0.00,,,0.00,Wunderground v.1.15,2013-08-24 11:18:00,
2013-08-24 07:23:00,51.5,50.1,30.30,SE,139,0.0,0.0,95,0.00,,,0.00,Wunderground v.1.15,2013-08-24 11:23:00,
2013-08-24 07:29:00,51.7,50.3,30.30,SE,139,0.0,0.0,95,0.00,,,0.00,Wunderground v.1.15,2013-08-24 11:29:00,
2013-08-24 07:35:00,52.1,50.7,30.30,SE,139,0.0,0.0,95,0.00,,,0.00,Wunderground v.1.15,2013-08-24 11:35:00,
2013-08-24 07:40:00,52.3,50.9,30.30,SE,139,0.0,0.0,95,0.00,,,0.00,Wunderground v.1.15,2013-08-24 11:40:00,
2013-08-24 07:46:00,52.5,51.1,30.31,SE,138,0.0,0.0,95,0.00,,,0.00,Wunderground v.1.15,2013-08-24 11:46:00,
2013-08-24 07:51:00,52.8,51.4,30.30,SE,139,0.0,0.0,95,0.00,,,0.00,Wunderground v.1.15,2013-08-24 11:51:00,
2013-08-24 07:56:00,53.0,51.6,30.31,SE,139,0.0,0.0,95,0.00,,,0.00,Wunderground v.1.15,2013-08-24 11:56:00,
2013-08-24 08:01:00,53.2,51.8,30.31,SE,139,0.0,0.0,95,0.00,,,0.00,Wunderground v.1.15,2013-08-24 12:01:00,
2013-08-24 08:07:00,53.6,52.5,30.31,SE,139,0.0,0.0,96,0.00,,,0.00,Wunderground v.1.15,2013-08-24 12:07:00,
2013-08-24 08:13:00,54.4,53.3,30.31,SE,139,0.0,0.0,96,0.00,,,0.00,Wunderground v.1.15,2013-08-24 12:13:00,
2013-08-24 08:19:00,55.1,54.0,30.31,SE,139,0.0,0.0,96,0.00,,,0.00,Wunderground v.1.15,2013-08-24 12:19:00,
2013-08-24 08:24:00,55.9,54.8,30.32,SE,138,0.0,0.0,96,0.00,,,0.00,Wunderground v.1.15,2013-08-24 12:24:00,
2013-08-24 08:30:00,56.7,55.6,30.32,SE,139,0.0,0.0,96,0.00,,,0.00,Wunderground v.1.15,2013-08-24 12:30:00,
2013-08-24 08:35:00,57.8,57.0,30.32,SE,139,0.0,0.0,97,0.00,,,0.00,Wunderground v.1.15,2013-08-24 12:35:00,
2013-08-24 08:40:00,58.7,57.9,30.32,SE,139,0.0,0.0,97,0.00,,,0.00,Wunderground v.1.15,2013-08-24 12:40:00,
2013-08-24 08:46:00,59.9,59.0,30.32,SE,139,0.0,0.0,97,0.00,,,0.00,Wunderground v.1.15,2013-08-24 12:46:00,
2013-08-24 08:51:00,60.9,60.0,30.32,SE,138,0.0,0.0,97,0.00,,,0.00,Wunderground v.1.15,2013-08-24 12:51:00,
2013-08-24 08:57:00,61.6,60.7,30.32,SE,139,0.0,0.0,97,0.00,,,0.00,Wunderground v.1.15,2013-08-24 12:57:00,
2013-08-24 09:02:00,62.3,61.4,30.32,SE,138,0.0,0.0,97,0.00,,,0.00,Wunderground v.1.15,2013-08-24 13:02:00,
2013-08-24 09:07:00,63.0,62.1,30.32,SE,139,0.0,0.0,97,0.00,,,0.00,Wunderground v.1.15,2013-08-24 13:07:00,
2013-08-24 09:13:00,64.3,62.2,30.32,SE,139,0.0,0.0,93,0.00,,,0.00,Wunderground v.1.15,2013-08-24 13:13:00,
2013-08-24 09:19:00,65.8,61.2,30.32,SSE,148,0.0,1.0,85,0.00,,,0.00,Wunderground v.1.15,2013-08-24 13:19:00,
2013-08-24 09:25:00,67.3,60.6,30.32,South,173,0.0,2.0,79,0.00,,,0.00,Wunderground v.1.15,2013-08-24 13:25:00,
2013-08-24 09:30:00,68.7,61.2,30.32,South,172,0.0,0.0,77,0.00,,,0.00,Wunderground v.1.15,2013-08-24 13:30:00,
2013-08-24 09:36:00,70.3,59.2,30.33,SSW,213,2.0,2.0,68,0.00,,,0.00,Wunderground v.1.15,2013-08-24 13:36:00,
2013-08-24 09:41:00,71.1,59.6,30.33,SW,215,2.0,3.0,67,0.00,,,0.00,Wunderground v.1.15,2013-08-24 13:41:00,
2013-08-24 09:47:00,72.1,60.5,30.33,SW,215,1.0,1.0,67,0.00,,,0.00,Wunderground v.1.15,2013-08-24 13:47:00,
2013-08-24 09:53:00,72.9,61.7,30.33,SW,215,0.0,4.0,68,0.00,,,0.00,Wunderground v.1.15,2013-08-24 13:53:00,
2013-08-24 09:58:00,73.3,61.3,30.33,SW,215,1.0,2.0,66,0.00,,,0.00,Wunderground v.1.15,2013-08-24 13:58:00,
2013-08-24 10:04:00,73.9,61.4,30.33,SW,215,0.0,2.0,65,0.00,,,0.00,Wunderground v.1.15,2013-08-24 14:04:00,
2013-08-24 10:09:00,74.5,62.0,30.33,SW,215,0.0,0.0,65,0.00,,,0.00,Wunderground v.1.15,2013-08-24 14:09:00,
2013-08-24 10:15:00,75.1,61.2,30.32,SW,214,0.0,1.0,62,0.00,,,0.00,Wunderground v.1.15,2013-08-24 14:15:00,
2013-08-24 10:20:00,75.3,61.8,30.32,SW,215,0.0,1.0,63,0.00,,,0.00,Wunderground v.1.15,2013-08-24 14:20:00,
2013-08-24 10:26:00,75.7,60.4,30.32,SW,214,0.0,0.0,59,0.00,,,0.00,Wunderground v.1.15,2013-08-24 14:26:00,
2013-08-24 10:31:00,76.1,61.2,30.32,SW,214,0.0,1.0,60,0.00,,,0.00,Wunderground v.1.15,2013-08-24 14:31:00,
2013-08-24 10:37:00,76.0,60.6,30.32,SW,223,0.0,0.0,59,0.00,,,0.00,Wunderground v.1.15,2013-08-24 14:37:00,
2013-08-24 10:42:00,75.9,60.5,30.32,SW,223,0.0,0.0,59,0.00,,,0.00,Wunderground v.1.15,2013-08-24 14:42:00,
2013-08-24 10:47:00,75.9,61.9,30.32,SW,223,0.0,0.0,62,0.00,,,0.00,Wunderground v.1.15,2013-08-24 14:47:00,
2013-08-24 10:53:00,75.9,62.4,30.32,SW,223,0.0,0.0,63,0.00,,,0.00,Wunderground v.1.15,2013-08-24 14:53:00,
2013-08-24 10:58:00,76.1,61.7,30.31,SW,223,0.0,0.0,61,0.00,,,0.00,Wunderground v.1.15,2013-08-24 14:58:00,
2013-08-24 11:04:00,76.6,60.7,30.32,SW,221,0.0,1.0,58,0.00,,,0.00,Wunderground v.1.15,2013-08-24 15:04:00,
2013-08-24 11:09:00,77.1,62.1,30.31,SSW,211,1.0,1.0,60,0.00,,,0.00,Wunderground v.1.15,2013-08-24 15:09:00,
2013-08-24 11:15:00,77.5,61.6,30.32,SSW,211,1.0,1.0,58,0.00,,,0.00,Wunderground v.1.15,2013-08-24 15:15:00,
2013-08-24 11:21:00,77.8,61.3,30.31,SSW,209,0.0,1.0,57,0.00,,,0.00,Wunderground v.1.15,2013-08-24 15:21:00,
2013-08-24 11:26:00,78.3,59.8,30.32,SSW,198,0.0,1.0,53,0.00,,,0.00,Wunderground v.1.15,2013-08-24 15:26:00,
2013-08-24 11:31:00,78.8,61.3,30.32,SSW,198,0.0,0.0,55,0.00,,,0.00,Wunderground v.1.15,2013-08-24 15:31:00,
2013-08-24 11:37:00,79.2,60.6,30.31,SSW,199,0.0,0.0,53,0.00,,,0.00,Wunderground v.1.15,2013-08-24 15:37:00,
2013-08-24 11:42:00,79.1,60.0,30.32,SW,227,0.0,1.0,52,0.00,,,0.00,Wunderground v.1.15,2013-08-24 15:42:00,
2013-08-24 11:48:00,78.7,59.6,30.32,SSW,213,1.0,1.0,52,0.00,,,0.00,Wunderground v.1.15,2013-08-24 15:48:00,
2013-08-24 11:53:00,78.4,60.4,30.31,SSW,213,1.0,2.0,54,0.00,,,0.00,Wunderground v.1.15,2013-08-24 15:53:00,
2013-08-24 11:59:00,77.8,59.8,30.31,SSW,213,0.0,0.0,54,0.00,,,0.00,Wunderground v.1.15,2013-08-24 15:59:00,
2013-08-24 12:06:00,77.5,61.1,30.31,SW,219,0.0,1.0,57,0.00,,,0.00,Wunderground v.1.15,2013-08-24 16:06:00,
2013-08-24 12:11:00,77.5,60.6,30.31,SW,219,0.0,2.0,56,0.00,,,0.00,Wunderground v.1.15,2013-08-24 16:11:00,
2013-08-24 12:17:00,77.5,60.1,30.31,SW,220,0.0,0.0,55,0.00,,,0.00,Wunderground v.1.15,2013-08-24 16:17:00,
2013-08-24 12:22:00,77.8,60.8,30.31,SW,225,0.0,0.0,56,0.00,,,0.00,Wunderground v.1.15,2013-08-24 16:22:00,
2013-08-24 12:27:00,77.8,60.3,30.31,SW,232,0.0,0.0,55,0.00,,,0.00,Wunderground v.1.15,2013-08-24 16:27:00,
2013-08-24 12:33:00,77.7,60.2,30.30,SW,232,0.0,1.0,55,0.00,,,0.00,Wunderground v.1.15,2013-08-24 16:33:00,
2013-08-24 12:38:00,77.3,59.9,30.30,SW,232,1.0,1.0,55,0.00,,,0.00,Wunderground v.1.15,2013-08-24 16:38:00,
2013-08-24 12:43:00,76.9,59.0,30.31,SW,232,0.0,1.0,54,0.00,,,0.00,Wunderground v.1.15,2013-08-24 16:43:00,
2013-08-24 12:49:00,77.1,60.2,30.30,SW,232,0.0,0.0,56,0.00,,,0.00,Wunderground v.1.15,2013-08-24 16:49:00,
2013-08-24 12:55:00,77.9,60.9,30.30,West,265,0.0,2.0,56,0.00,,,0.00,Wunderground v.1.15,2013-08-24 16:55:00,
2013-08-24 13:01:00,78.7,61.7,30.30,West,265,0.0,0.0,56,0.00,,,0.00,Wunderground v.1.15,2013-08-24 17:01:00,
2013-08-24 13:07:00,79.4,59.7,30.30,NNW,329,1.0,1.0,51,0.00,,,0.00,Wunderground v.1.15,2013-08-24 17:07:00,
2013-08-24 13:12:00,79.4,59.1,30.29,NW,304,1.0,2.0,50,0.00,,,0.00,Wunderground v.1.15,2013-08-24 17:12:00,
2013-08-24 13:17:00,79.5,60.3,30.29,West,265,1.0,1.0,52,0.00,,,0.00,Wunderground v.1.15,2013-08-24 17:17:00,
2013-08-24 13:22:00,79.3,58.5,30.28,West,266,0.0,1.0,49,0.00,,,0.00,Wunderground v.1.15,2013-08-24 17:22:00,
2013-08-24 13:28:00,79.0,59.3,30.28,WSW,257,0.0,2.0,51,0.00,,,0.00,Wunderground v.1.15,2013-08-24 17:28:00,
2013-08-24 13:33:00,78.8,58.6,30.29,WSW,257,0.0,2.0,50,0.00,,,0.00,Wunderground v.1.15,2013-08-24 17:33:00,
2013-08-24 13:38:00,78.7,59.0,30.29,WSW,258,0.0,0.0,51,0.00,,,0.00,Wunderground v.1.15,2013-08-24 17:38:00,
2013-08-24 13:44:00,79.0,60.4,30.29,WSW,245,0.0,2.0,53,0.00,,,0.00,Wunderground v.1.15,2013-08-24 17:44:00,
2013-08-24 13:50:00,79.4,58.6,30.29,SW,225,1.0,2.0,49,0.00,,,0.00,Wunderground v.1.15,2013-08-24 17:50:00,
2013-08-24 13:56:00,79.1,58.9,30.29,SW,225,1.0,2.0,50,0.00,,,0.00,Wunderground v.1.15,2013-08-24 17:56:00,
2013-08-24 14:01:00,78.9,59.2,30.29,SW,224,0.0,1.0,51,0.00,,,0.00,Wunderground v.1.15,2013-08-24 18:01:00,
2013-08-24 14:07:00,79.1,58.9,30.29,SW,222,0.0,0.0,50,0.00,,,0.00,Wunderground v.1.15,2013-08-24 18:07:00,
2013-08-24 14:12:00,79.1,60.0,30.29,SW,223,0.0,0.0,52,0.00,,,0.00,Wunderground v.1.15,2013-08-24 18:12:00,
2013-08-24 14:17:00,79.2,59.0,30.29,SW,223,0.0,0.0,50,0.00,,,0.00,Wunderground v.1.15,2013-08-24 18:17:00,
2013-08-24 14:23:00,79.2,59.0,30.29,SW,223,0.0,0.0,50,0.00,,,0.00,Wunderground v.1.15,2013-08-24 18:23:00,
2013-08-24 14:28:00,79.6,59.3,30.29,SW,223,0.0,0.0,50,0.00,,,0.00,Wunderground v.1.15,2013-08-24 18:28:00,
2013-08-24 14:33:00,79.9,59.6,30.28,SW,223,0.0,1.0,50,0.00,,,0.00,Wunderground v.1.15,2013-08-24 18:33:00,
2013-08-24 14:39:00,79.6,58.8,30.28,South,186,1.0,3.0,49,0.00,,,0.00,Wunderground v.1.15,2013-08-24 18:39:00,
2013-08-24 14:45:00,79.3,58.5,30.28,South,184,1.0,3.0,49,0.00,,,0.00,Wunderground v.1.15,2013-08-24 18:45:00,
2013-08-24 14:51:00,79.5,59.2,30.28,South,184,0.0,1.0,50,0.00,,,0.00,Wunderground v.1.15,2013-08-24 18:51:00,
2013-08-24 14:57:00,80.7,59.2,30.28,SSE,151,0.0,0.0,48,0.00,,,0.00,Wunderground v.1.15,2013-08-24 18:57:00,
2013-08-24 15:02:00,81.5,58.7,30.28,SE,141,1.0,3.0,46,0.00,,,0.00,Wunderground v.1.15,2013-08-24 19:02:00,
2013-08-24 15:08:00,82.2,58.7,30.28,SE,141,0.0,1.0,45,0.00,,,0.00,Wunderground v.1.15,2013-08-24 19:08:00,
2013-08-24 15:13:00,82.5,59.0,30.28,SSE,157,0.0,3.0,45,0.00,,,0.00,Wunderground v.1.15,2013-08-24 19:13:00,
2013-08-24 15:19:00,82.5,59.6,30.28,SSW,196,1.0,4.0,46,0.00,,,0.00,Wunderground v.1.15,2013-08-24 19:19:00,
2013-08-24 15:25:00,82.8,60.5,30.28,SSW,200,1.0,4.0,47,0.00,,,0.00,Wunderground v.1.15,2013-08-24 19:25:00,
2013-08-24 15:30:00,82.9,60.0,30.27,SSW,202,1.0,2.0,46,0.00,,,0.00,Wunderground v.1.15,2013-08-24 19:30:00,
2013-08-24 15:36:00,82.6,58.5,30.27,SSW,209,2.0,2.0,44,0.00,,,0.00,Wunderground v.1.15,2013-08-24 19:36:00,
2013-08-24 15:41:00,82.6,58.5,30.27,SSW,208,1.0,2.0,44,0.00,,,0.00,Wunderground v.1.15,2013-08-24 19:41:00,
2013-08-24 15:47:00,82.9,60.0,30.27,SSW,209,0.0,1.0,46,0.00,,,0.00,Wunderground v.1.15,2013-08-24 19:47:00,
2013-08-24 15:52:00,82.7,61.0,30.27,SSW,210,0.0,1.0,48,0.00,,,0.00,Wunderground v.1.15,2013-08-24 19:52:00,
2013-08-24 15:58:00,81.9,58.5,30.28,SSW,211,0.0,0.0,45,0.00,,,0.00,Wunderground v.1.15,2013-08-24 19:58:00,
2013-08-24 16:03:00,81.2,59.1,30.27,SSW,210,0.0,0.0,47,0.00,,,0.00,Wunderground v.1.15,2013-08-24 20:03:00,
2013-08-24 16:09:00,81.1,59.0,30.27,SSW,211,0.0,1.0,47,0.00,,,0.00,Wunderground v.1.15,2013-08-24 20:09:00,
2013-08-24 16:15:00,81.8,60.2,30.27,SSW,211,0.0,1.0,48,0.00,,,0.00,Wunderground v.1.15,2013-08-24 20:15:00,
2013-08-24 16:20:00,82.7,59.8,30.27,SSW,209,0.0,1.0,46,0.00,,,0.00,Wunderground v.1.15,2013-08-24 20:20:00,
2013-08-24 16:26:00,83.3,59.1,30.27,SSW,209,1.0,2.0,44,0.00,,,0.00,Wunderground v.1.15,2013-08-24 20:26:00,
2013-08-24 16:31:00,83.3,59.1,30.27,SSW,198,1.0,2.0,44,0.00,,,0.00,Wunderground v.1.15,2013-08-24 20:31:00,
2013-08-24 16:37:00,82.9,59.4,30.27,SSW,198,1.0,1.0,45,0.00,,,0.00,Wunderground v.1.15,2013-08-24 20:37:00,
2013-08-24 16:42:00,82.4,58.9,30.27,SSW,198,0.0,1.0,45,0.00,,,0.00,Wunderground v.1.15,2013-08-24 20:42:00,
2013-08-24 16:47:00,81.9,59.1,30.27,SSW,198,0.0,0.0,46,0.00,,,0.00,Wunderground v.1.15,2013-08-24 20:47:00,
2013-08-24 16:52:00,81.2,59.1,30.27,SSW,198,0.0,1.0,47,0.00,,,0.00,Wunderground v.1.15,2013-08-24 20:52:00,
2013-08-24 16:58:00,80.4,57.7,30.27,SSW,198,0.0,0.0,46,0.00,,,0.00,Wunderground v.1.15,2013-08-24 20:58:00,
2013-08-24 17:03:00,80.3,58.2,30.27,SSW,198,0.0,0.0,47,0.00,,,0.00,Wunderground v.1.15,2013-08-24 21:03:00,
2013-08-24 17:08:00,80.5,58.4,30.27,SSW,198,0.0,0.0,47,0.00,,,0.00,Wunderground v.1.15,2013-08-24 21:08:00,
2013-08-24 17:14:00,80.5,60.1,30.26,SSW,198,0.0,0.0,50,0.00,,,0.00,Wunderground v.1.15,2013-08-24 21:14:00,
2013-08-24 17:19:00,80.8,57.5,30.26,SSW,198,0.0,1.0,45,0.00,,,0.00,Wunderground v.1.15,2013-08-24 21:19:00,
2013-08-24 17:25:00,81.5,58.1,30.26,SSW,198,0.0,1.0,45,0.00,,,0.00,Wunderground v.1.15,2013-08-24 21:25:00,
2013-08-24 17:30:00,81.8,58.4,30.26,SSW,199,0.0,2.0,45,0.00,,,0.00,Wunderground v.1.15,2013-08-24 21:30:00,
2013-08-24 17:36:00,82.1,58.7,30.26,SSW,208,0.0,2.0,45,0.00,,,0.00,Wunderground v.1.15,2013-08-24 21:36:00,
2013-08-24 17:41:00,82.4,59.5,30.26,SSW,209,0.0,1.0,46,0.00,,,0.00,Wunderground v.1.15,2013-08-24 21:41:00,
2013-08-24 17:46:00,83.0,59.5,30.26,SSW,209,0.0,1.0,45,0.00,,,0.00,Wunderground v.1.15,2013-08-24 21:46:00,
2013-08-24 17:52:00,83.4,59.8,30.26,SSW,209,0.0,3.0,45,0.00,,,0.00,Wunderground v.1.15,2013-08-24 21:52:00,
2013-08-24 17:58:00,83.4,59.8,30.26,SW,214,1.0,2.0,45,0.00,,,0.00,Wunderground v.1.15,2013-08-24 21:58:00,
2013-08-24 18:03:00,83.0,60.1,30.26,SW,216,1.0,3.0,46,0.00,,,0.00,Wunderground v.1.15,2013-08-24 22:03:00,
2013-08-24 18:09:00,82.3,60.6,30.26,SW,216,1.0,1.0,48,0.00,,,0.00,Wunderground v.1.15,2013-08-24 22:09:00,
2013-08-24 18:14:00,81.5,58.7,30.26,SSW,211,1.0,4.0,46,0.00,,,0.00,Wunderground v.1.15,2013-08-24 22:14:00,
2013-08-24 18:20:00,81.3,59.7,30.26,SSW,211,2.0,3.0,48,0.00,,,0.00,Wunderground v.1.15,2013-08-24 22:20:00,
2013-08-24 18:26:00,81.0,60.0,30.26,SSW,211,1.0,3.0,49,0.00,,,0.00,Wunderground v.1.15,2013-08-24 22:26:00,
2013-08-24 18:31:00,80.9,59.9,30.26,SSW,211,1.0,1.0,49,0.00,,,0.00,Wunderground v.1.15,2013-08-24 22:31:00,
2013-08-24 18:37:00,81.0,60.0,30.26,SSW,211,0.0,0.0,49,0.00,,,0.00,Wunderground v.1.15,2013-08-24 22:37:00,
2013-08-24 18:42:00,81.1,60.7,30.26,SSW,211,0.0,1.0,50,0.00,,,0.00,Wunderground v.1.15,2013-08-24 22:42:00,
2013-08-24 18:48:00,81.4,60.4,30.26,SSW,211,0.0,0.0,49,0.00,,,0.00,Wunderground v.1.15,2013-08-24 22:48:00,
2013-08-24 18:53:00,81.4,61.0,30.26,SSW,211,0.0,1.0,50,0.00,,,0.00,Wunderground v.1.15,2013-08-24 22:53:00,
2013-08-24 18:59:00,81.6,61.2,30.25,SSW,211,0.0,0.0,50,0.00,,,0.00,Wunderground v.1.15,2013-08-24 22:59:00,
2013-08-24 19:04:00,81.6,61.7,30.26,SSW,211,0.0,0.0,51,0.00,,,0.00,Wunderground v.1.15,2013-08-24 23:04:00,
2013-08-24 19:10:00,81.4,61.0,30.25,SSW,211,0.0,0.0,50,0.00,,,0.00,Wunderground v.1.15,2013-08-24 23:10:00,
2013-08-24 19:16:00,81.1,60.7,30.25,SSW,211,0.0,0.0,50,0.00,,,0.00,Wunderground v.1.15,2013-08-24 23:16:00,
2013-08-24 19:21:00,80.6,61.3,30.26,SSW,211,0.0,0.0,52,0.00,,,0.00,Wunderground v.1.15,2013-08-24 23:21:00,
2013-08-24 19:27:00,80.0,61.3,30.25,SSW,211,0.0,0.0,53,0.00,,,0.00,Wunderground v.1.15,2013-08-24 23:27:00,
2013-08-24 19:32:00,79.5,60.9,30.25,SSW,211,0.0,0.0,53,0.00,,,0.00,Wunderground v.1.15,2013-08-24 23:32:00,
2013-08-24 19:38:00,78.9,61.4,30.25,SSW,211,0.0,0.0,55,0.00,,,0.00,Wunderground v.1.15,2013-08-24 23:38:00,
2013-08-24 19:43:00,78.4,61.9,30.25,SSW,211,0.0,0.0,57,0.00,,,0.00,Wunderground v.1.15,2013-08-24 23:43:00,
2013-08-24 19:49:00,77.8,61.8,30.25,SSW,211,0.0,0.0,58,0.00,,,0.00,Wunderground v.1.15,2013-08-24 23:49:00,
2013-08-24 19:54:00,77.2,62.2,30.26,SSW,211,0.0,0.0,60,0.00,,,0.00,Wunderground v.1.15,2013-08-24 23:54:00,
2013-08-24 20:00:00,76.6,63.1,30.25,SSW,211,0.0,0.0,63,0.00,,,0.00,Wunderground v.1.15,2013-08-25 00:00:00,
2013-08-24 20:06:00,75.9,62.8,30.26,SSW,211,0.0,0.0,64,0.00,,,0.00,Wunderground v.1.15,2013-08-25 00:06:00,
2013-08-24 20:11:00,75.3,63.2,30.25,SSW,211,0.0,0.0,66,0.00,,,0.00,Wunderground v.1.15,2013-08-25 00:11:00,
2013-08-24 20:17:00,74.5,62.8,30.26,SSW,211,0.0,0.0,67,0.00,,,0.00,Wunderground v.1.15,2013-08-25 00:17:00,
2013-08-24 20:22:00,73.8,63.0,30.26,SSW,211,0.0,0.0,69,0.00,,,0.00,Wunderground v.1.15,2013-08-25 00:22:00,
2013-08-24 20:27:00,73.0,62.6,30.26,SSW,211,0.0,0.0,70,0.00,,,0.00,Wunderground v.1.15,2013-08-25 00:27:00,
2013-08-24 20:33:00,72.3,62.8,30.26,SSW,211,0.0,0.0,72,0.00,,,0.00,Wunderground v.1.15,2013-08-25 00:33:00,
2013-08-24 20:38:00,71.5,62.4,30.27,SSW,211,0.0,0.0,73,0.00,,,0.00,Wunderground v.1.15,2013-08-25 00:38:00,
2013-08-24 20:43:00,70.9,62.6,30.27,SSW,211,0.0,0.0,75,0.00,,,0.00,Wunderground v.1.15,2013-08-25 00:43:00,
2013-08-24 20:49:00,70.3,62.4,30.27,SSW,211,0.0,0.0,76,0.00,,,0.00,Wunderground v.1.15,2013-08-25 00:49:00,
2013-08-24 20:55:00,69.7,62.2,30.27,SSW,211,0.0,0.0,77,0.00,,,0.00,Wunderground v.1.15,2013-08-25 00:55:00,
2013-08-24 21:00:00,69.2,62.0,30.27,SSW,211,0.0,0.0,78,0.00,,,0.00,Wunderground v.1.15,2013-08-25 01:00:00,
2013-08-24 21:05:00,69.0,61.5,30.28,SSW,211,0.0,0.0,77,0.00,,,0.00,Wunderground v.1.15,2013-08-25 01:05:00,
2013-08-24 21:11:00,69.0,61.5,30.28,SSW,211,0.0,0.0,77,0.00,,,0.00,Wunderground v.1.15,2013-08-25 01:11:00,
2013-08-24 21:16:00,69.1,61.2,30.27,SSW,211,0.0,2.0,76,0.00,,,0.00,Wunderground v.1.15,2013-08-25 01:16:00,
2013-08-24 21:21:00,69.3,61.0,30.28,SSW,210,0.0,2.0,75,0.00,,,0.00,Wunderground v.1.15,2013-08-25 01:21:00,
2013-08-24 21:27:00,69.4,61.1,30.28,SSW,210,0.0,0.0,75,0.00,,,0.00,Wunderground v.1.15,2013-08-25 01:27:00,
2013-08-24 21:33:00,69.6,60.9,30.28,SSW,202,1.0,3.0,74,0.00,,,0.00,Wunderground v.1.15,2013-08-25 01:33:00,
2013-08-24 21:39:00,69.7,60.7,30.28,SSW,196,1.0,3.0,73,0.00,,,0.00,Wunderground v.1.15,2013-08-25 01:39:00,
2013-08-24 21:45:00,69.7,60.7,30.28,SSW,196,1.0,3.0,73,0.00,,,0.00,Wunderground v.1.15,2013-08-25 01:45:00,
2013-08-24 21:50:00,69.6,60.6,30.28,SSW,196,1.0,3.0,73,0.00,,,0.00,Wunderground v.1.15,2013-08-25 01:50:00,
2013-08-24 21:56:00,69.5,60.5,30.28,SSW,196,1.0,1.0,73,0.00,,,0.00,Wunderground v.1.15,2013-08-25 01:56:00,
2013-08-24 22:01:00,69.3,60.3,30.28,SSW,196,1.0,1.0,73,0.00,,,0.00,Wunderground v.1.15,2013-08-25 02:01:00,
2013-08-24 22:07:00,69.0,60.4,30.28,SSW,198,1.0,2.0,74,0.00,,,0.00,Wunderground v.1.15,2013-08-25 02:07:00,
2013-08-24 22:13:00,68.8,60.2,30.27,SSW,198,1.0,2.0,74,0.00,,,0.00,Wunderground v.1.15,2013-08-25 02:13:00,
2013-08-24 22:19:00,68.5,59.9,30.27,SSW,202,1.0,1.0,74,0.00,,,0.00,Wunderground v.1.15,2013-08-25 02:19:00,
2013-08-24 22:25:00,68.4,59.8,30.28,SSW,200,2.0,5.0,74,0.00,,,0.00,Wunderground v.1.15,2013-08-25 02:25:00,
2013-08-24 22:30:00,68.3,60.1,30.27,SSW,199,1.0,1.0,75,0.00,,,0.00,Wunderground v.1.15,2013-08-25 02:30:00,
2013-08-24 22:36:00,68.2,60.0,30.27,SSW,198,0.0,0.0,75,0.00,,,0.00,Wunderground v.1.15,2013-08-25 02:36:00,
2013-08-24 22:42:00,68.1,59.9,30.27,SSW,196,0.0,3.0,75,0.00,,,0.00,Wunderground v.1.15,2013-08-25 02:42:00,
2013-08-24 22:47:00,67.9,59.7,30.28,SSW,195,1.0,5.0,75,0.00,,,0.00,Wunderground v.1.15,2013-08-25 02:47:00,
2013-08-24 22:52:00,67.8,60.0,30.28,South,189,1.0,5.0,76,0.00,,,0.00,Wunderground v.1.15,2013-08-25 02:52:00,
2013-08-24 22:58:00,67.6,59.8,30.28,South,188,1.0,2.0,76,0.00,,,0.00,Wunderground v.1.15,2013-08-25 02:58:00,
2013-08-24 23:03:00,67.5,59.7,30.28,South,184,1.0,4.0,76,0.00,,,0.00,Wunderground v.1.15,2013-08-25 03:03:00,
2013-08-24 23:09:00,67.4,59.6,30.28,SSW,199,1.0,4.0,76,0.00,,,0.00,Wunderground v.1.15,2013-08-25 03:09:00,
2013-08-24 23:15:00,67.3,59.5,30.28,SSW,203,1.0,5.0,76,0.00,,,0.00,Wunderground v.1.15,2013-08-25 03:15:00,
2013-08-24 23:20:00,67.2,59.4,30.28,SSW,203,0.0,1.0,76,0.00,,,0.00,Wunderground v.1.15,2013-08-25 03:20:00,
2013-08-24 23:25:00,67.0,59.2,30.28,SSW,202,0.0,4.0,76,0.00,,,0.00,Wunderground v.1.15,2013-08-25 03:25:00,
2013-08-24 23:30:00,66.9,59.5,30.28,SSW,202,1.0,1.0,77,0.00,,,0.00,Wunderground v.1.15,2013-08-25 03:30:00,
2013-08-24 23:36:00,66.7,59.3,30.28,SSW,202,0.0,2.0,77,0.00,,,0.00,Wunderground v.1.15,2013-08-25 03:36:00,
2013-08-24 23:41:00,66.6,59.2,30.28,SSW,203,1.0,2.0,77,0.00,,,0.00,Wunderground v.1.15,2013-08-25 03:41:00,
2013-08-24 23:47:00,66.5,59.1,30.27,South,186,1.0,3.0,77,0.00,,,0.00,Wunderground v.1.15,2013-08-25 03:47:00,
2013-08-24 23:52:00,66.4,59.0,30.27,South,187,1.0,3.0,77,0.00,,,0.00,Wunderground v.1.15,2013-08-25 03:52:00,
2013-08-24 23:58:00,66.2,58.8,30.28,South,187,1.0,2.0,77,0.00,,,0.00,Wunderground v.1.15,2013-08-25 03:58:00,